Time;durP1;ratioP1;P1;durP2;ratioP2;P2;SDS_P1;SDS_P2;PMS_P1;PMS_P2;Temp;Humidity;BMP_temperature;BMP_pressure;BME280_temperature;BME280_humidity;BME280_pressure;Samples;Min_cycle;Max_cycle;Signal;HPM_P1;HPM_P2
2022/11/07 00:02:24;;;;;;;12.98;8.52;;;10.60;99.90;;;;;;5113226;27;20039;-77
2022/11/07 00:04:50;;;;;;;10.27;8.65;;;10.60;99.90;;;;;;5108102;27;20051;-79
2022/11/07 00:07:16;;;;;;;13.13;9.43;;;10.60;99.90;;;;;;5076649;27;20089;-78
2022/11/07 00:09:42;;;;;;;10.73;8.48;;;10.60;99.90;;;;;;5152270;27;20077;-78
2022/11/07 00:12:08;;;;;;;14.75;9.13;;;10.60;99.90;;;;;;5126733;27;20541;-78
2022/11/07 00:14:34;;;;;;;11.18;8.38;;;10.70;99.90;;;;;;5105773;27;20462;-78
2022/11/07 00:16:59;;;;;;;10.70;8.43;;;10.70;99.90;;;;;;5130321;27;20035;-78
2022/11/07 00:19:25;;;;;;;10.65;8.38;;;10.70;99.90;;;;;;5111907;27;20078;-78
2022/11/07 00:21:51;;;;;;;10.93;8.55;;;10.70;99.90;;;;;;5111539;27;20043;-77
2022/11/07 00:24:18;;;;;;;10.20;8.15;;;10.80;99.90;;;;;;5114600;27;20042;-72
2022/11/07 00:26:45;;;;;;;9.30;7.65;;;10.80;99.90;;;;;;5124882;27;20078;-73
2022/11/07 00:29:17;;;;;;;10.32;7.85;;;10.80;99.90;;;;;;5117941;27;20073;-73
2022/11/07 00:31:42;;;;;;;11.93;8.27;;;10.80;99.90;;;;;;5127096;27;20092;-73
2022/11/07 00:34:09;;;;;;;10.35;6.85;;;10.90;99.90;;;;;;5139830;27;20267;-73
2022/11/07 00:36:34;;;;;;;10.30;7.38;;;10.90;99.90;;;;;;5108556;27;20042;-72
2022/11/07 00:39:00;;;;;;;12.65;7.18;;;10.90;99.90;;;;;;5114851;27;20039;-72
2022/11/07 00:41:26;;;;;;;9.93;7.15;;;10.90;99.90;;;;;;5126436;27;20066;-72
2022/11/07 00:43:52;;;;;;;10.90;7.20;;;10.90;99.90;;;;;;5136415;27;20070;-72
2022/11/07 00:46:19;;;;;;;10.95;6.72;;;10.90;99.90;;;;;;5110102;27;20050;-72
2022/11/07 00:48:45;;;;;;;8.75;6.85;;;10.90;99.90;;;;;;5111228;27;20051;-72
2022/11/07 00:51:15;;;;;;;10.52;7.40;;;11.00;99.90;;;;;;5087095;27;20058;-72
2022/11/07 00:53:42;;;;;;;12.10;7.72;;;10.90;99.90;;;;;;5129748;27;20035;-73
2022/11/07 00:56:10;;;;;;;10.68;6.63;;;11.00;99.90;;;;;;5098770;27;20050;-73
2022/11/07 00:58:37;;;;;;;13.05;7.55;;;11.00;99.90;;;;;;5121788;27;20065;-72
2022/11/07 01:01:20;;;;;;;9.73;6.10;;;11.00;99.90;;;;;;5107057;27;20079;-72
2022/11/07 01:06:51;;;;;;;12.00;6.25;;;11.00;99.90;;;;;;5050284;28;20501;-73
2022/11/07 01:09:19;;;;;;;13.07;6.20;;;11.00;99.90;;;;;;5073898;27;20047;-73
2022/11/07 01:11:46;;;;;;;13.43;6.65;;;11.00;99.90;;;;;;5133151;27;20047;-72
2022/11/07 01:14:13;;;;;;;12.88;6.82;;;11.10;99.90;;;;;;5120317;27;20046;-72
2022/11/07 01:16:40;;;;;;;13.93;6.43;;;11.10;99.90;;;;;;5138610;27;20083;-72
2022/11/07 01:19:07;;;;;;;7.72;6.35;;;11.10;99.90;;;;;;5128554;27;20039;-73
2022/11/07 01:21:33;;;;;;;12.15;6.20;;;11.10;99.90;;;;;;5105371;27;20035;-72
2022/11/07 01:24:00;;;;;;;12.10;6.20;;;11.20;99.90;;;;;;5119569;27;20096;-72
2022/11/07 01:26:26;;;;;;;14.25;6.22;;;11.20;99.90;;;;;;5103318;27;20042;-73
2022/11/07 01:28:51;;;;;;;17.48;6.32;;;11.20;99.90;;;;;;5131567;27;20056;-73
2022/11/07 01:31:17;;;;;;;10.52;7.20;;;11.20;99.90;;;;;;5098847;27;20086;-72
2022/11/07 01:33:44;;;;;;;10.95;6.28;;;11.20;99.90;;;;;;5156143;27;20058;-72
2022/11/07 01:36:13;;;;;;;12.82;6.15;;;11.10;99.90;;;;;;5106134;27;20382;-73
2022/11/07 01:38:43;;;;;;;11.00;7.15;;;11.10;99.90;;;;;;5103666;27;20130;-73
2022/11/07 01:41:21;;;;;;;11.65;6.35;;;11.10;99.90;;;;;;5117369;27;20089;-73
2022/11/07 01:43:55;;;;;;;13.18;6.70;;;11.20;99.90;;;;;;5104639;27;20062;-73
2022/11/07 01:46:25;;;;;;;12.90;6.82;;;11.20;99.90;;;;;;5110176;27;20405;-78
2022/11/07 01:48:53;;;;;;;;;;;11.20;99.90;;;;;;5121464;27;20039;-78
2022/11/07 01:51:20;;;;;;;11.95;6.35;;;11.20;99.90;;;;;;5123436;27;19923;-72
2022/11/07 01:53:47;;;;;;;10.38;6.28;;;11.20;99.90;;;;;;5119544;27;20047;-72
2022/11/07 01:56:16;;;;;;;14.77;6.68;;;11.20;99.90;;;;;;5095731;27;20028;-72
2022/11/07 01:58:44;;;;;;;11.13;6.97;;;11.20;99.90;;;;;;5116864;27;20482;-72
2022/11/07 02:01:10;;;;;;;13.05;6.70;;;11.20;99.90;;;;;;5107781;27;20043;-72
2022/11/07 02:03:36;;;;;;;13.02;6.38;;;11.20;99.90;;;;;;5097642;27;20051;-79
2022/11/07 02:06:06;;;;;;;14.25;6.78;;;11.20;99.90;;;;;;5094334;27;20489;-79
2022/11/07 02:08:34;;;;;;;11.63;5.80;;;11.30;99.90;;;;;;5119197;27;20118;-79
2022/11/07 02:11:01;;;;;;;10.60;6.30;;;11.20;99.90;;;;;;5105733;27;20489;-78
2022/11/07 02:13:31;;;;;;;13.30;6.18;;;11.20;99.90;;;;;;5139825;27;20552;-79
2022/11/07 02:16:03;;;;;;;14.02;6.43;;;11.30;99.90;;;;;;5126815;27;20651;-79
2022/11/07 02:18:32;;;;;;;10.32;5.72;;;11.30;99.90;;;;;;5111740;27;20035;-79
2022/11/07 02:21:04;;;;;;;11.32;5.38;;;11.30;99.90;;;;;;5122338;27;20126;-79
2022/11/07 02:23:55;;;;;;;12.43;6.03;;;11.30;99.90;;;;;;5100941;27;20039;-79
2022/11/07 02:26:22;;;;;;;11.95;5.45;;;11.30;99.90;;;;;;5122323;27;20035;-78
2022/11/07 02:28:49;;;;;;;10.35;5.75;;;11.30;99.90;;;;;;5133079;27;20138;-79
2022/11/07 02:31:15;;;;;;;14.25;5.35;;;11.30;99.90;;;;;;5107144;27;20043;-79
2022/11/07 02:33:40;;;;;;;11.93;4.88;;;11.40;99.90;;;;;;5090929;27;20148;-78
2022/11/07 02:36:12;;;;;;;10.65;4.85;;;11.40;99.90;;;;;;5115319;27;20039;-79
2022/11/07 02:38:38;;;;;;;16.17;5.35;;;11.40;99.90;;;;;;5133599;27;20118;-79
2022/11/07 02:41:08;;;;;;;11.65;5.35;;;11.50;99.90;;;;;;5132854;27;20446;-79
2022/11/07 02:43:37;;;;;;;11.88;5.32;;;11.40;99.90;;;;;;5120696;27;20039;-73
2022/11/07 02:46:08;;;;;;;14.15;6.13;;;11.40;99.90;;;;;;5110820;27;20119;-73
2022/11/07 02:48:50;;;;;;;16.25;6.43;;;11.40;99.90;;;;;;5119032;27;20158;-72
2022/11/07 02:51:16;;;;;;;10.90;5.60;;;11.40;99.90;;;;;;5152154;27;20049;-73
2022/11/07 02:53:42;;;;;;;11.70;5.82;;;11.40;99.90;;;;;;5106785;27;20113;-73
2022/11/07 02:56:08;;;;;;;10.23;5.20;;;11.50;99.90;;;;;;5121787;27;20071;-73
2022/11/07 02:58:34;;;;;;;12.18;5.88;;;11.50;99.90;;;;;;5101625;27;20035;-73
2022/11/07 03:01:05;;;;;;;12.68;5.43;;;11.50;99.90;;;;;;5083183;28;20039;-78
2022/11/07 03:03:33;;;;;;;12.50;5.72;;;11.50;99.90;;;;;;5101776;28;20054;-77
2022/11/07 03:06:02;;;;;;;12.43;6.15;;;11.50;99.90;;;;;;5111851;27;20071;-78
2022/11/07 03:08:31;;;;;;;13.20;6.07;;;11.50;99.90;;;;;;5096613;28;20047;-78
2022/11/07 03:11:00;;;;;;;12.23;6.25;;;11.50;99.90;;;;;;5099243;28;20261;-78
2022/11/07 03:13:26;;;;;;;14.23;5.78;;;11.50;99.90;;;;;;5103994;28;20054;-79
2022/11/07 03:15:52;;;;;;;13.25;5.72;;;11.50;99.90;;;;;;5108293;28;20048;-79
2022/11/07 03:18:18;;;;;;;12.35;6.30;;;11.50;99.90;;;;;;5082698;27;20047;-79
2022/11/07 03:20:44;;;;;;;15.70;6.25;;;11.50;99.90;;;;;;5114952;27;20099;-78
2022/11/07 03:23:10;;;;;;;13.45;6.00;;;11.40;99.90;;;;;;5118389;27;20083;-78
2022/11/07 03:25:35;;;;;;;15.05;6.57;;;11.40;99.90;;;;;;5132243;27;20497;-79
2022/11/07 03:28:01;;;;;;;11.10;6.70;;;11.40;99.90;;;;;;5106194;27;20046;-77
2022/11/07 03:30:27;;;;;;;11.82;6.50;;;11.40;99.90;;;;;;5096598;27;20070;-78
2022/11/07 03:32:53;;;;;;;12.55;6.65;;;11.30;99.90;;;;;;5104225;27;20035;-78
2022/11/07 03:35:20;;;;;;;13.45;6.47;;;11.20;99.90;;;;;;5120858;27;20304;-78
2022/11/07 03:37:46;;;;;;;16.98;7.97;;;11.20;99.90;;;;;;5127068;27;20050;-72
2022/11/07 03:40:12;;;;;;;13.40;6.32;;;11.20;99.90;;;;;;5103395;27;20047;-72
2022/11/07 03:42:39;;;;;;;14.25;6.82;;;11.20;99.90;;;;;;5096700;27;20580;-71
2022/11/07 03:45:07;;;;;;;14.60;6.88;;;11.10;99.90;;;;;;5102580;27;20167;-71
2022/11/07 03:47:37;;;;;;;15.95;6.97;;;11.10;99.90;;;;;;5106512;27;20896;-71
2022/11/07 03:50:04;;;;;;;13.82;6.60;;;11.10;99.90;;;;;;5134765;27;20047;-71
2022/11/07 03:52:30;;;;;;;13.00;6.93;;;11.10;99.90;;;;;;5130328;27;20043;-72
2022/11/07 03:54:55;;;;;;;13.43;5.95;;;11.10;99.90;;;;;;5104392;27;20047;-71
2022/11/07 03:57:21;;;;;;;17.35;6.57;;;11.10;99.90;;;;;;5100718;27;20040;-72
2022/11/07 03:59:47;;;;;;;13.15;6.07;;;11.10;99.90;;;;;;5116361;27;20035;-72
2022/11/07 04:02:13;;;;;;;9.38;5.60;;;11.10;99.90;;;;;;5105338;27;20098;-71
2022/11/07 04:04:38;;;;;;;14.18;6.75;;;11.10;99.90;;;;;;5118711;27;20043;-77
2022/11/07 04:07:04;;;;;;;13.35;6.10;;;11.20;99.90;;;;;;5111868;27;20104;-77
2022/11/07 04:09:30;;;;;;;12.80;6.50;;;11.20;99.90;;;;;;5124683;27;20035;-78
2022/11/07 04:17:26;;;;;;;16.30;7.13;;;11.20;99.90;;;;;;5128583;27;20046;-78
2022/11/07 04:19:54;;;;;;;11.23;6.22;;;11.20;99.90;;;;;;5129468;27;20043;-79
2022/11/07 04:22:24;;;;;;;14.50;6.60;;;11.20;99.90;;;;;;5098381;27;20043;-78
2022/11/07 04:24:50;;;;;;;16.15;6.88;;;11.20;99.90;;;;;;5123977;27;20579;-79
2022/11/07 04:30:25;;;;;;;13.98;6.45;;;11.30;99.90;;;;;;5133967;27;20104;-79
2022/11/07 04:33:01;;;;;;;14.75;6.60;;;11.30;99.90;;;;;;5102242;27;20130;-78
2022/11/07 04:35:30;;;;;;;19.90;7.25;;;11.30;99.90;;;;;;5123071;27;20103;-77
2022/11/07 04:37:56;;;;;;;15.38;6.90;;;11.30;99.90;;;;;;5113029;27;20039;-79
2022/11/07 04:40:22;;;;;;;17.42;7.38;;;11.30;99.90;;;;;;5137388;27;20035;-78
2022/11/07 04:42:48;;;;;;;13.48;6.50;;;11.30;99.90;;;;;;5082978;27;20051;-78
2022/11/07 04:45:14;;;;;;;13.75;6.55;;;11.20;99.90;;;;;;5131064;27;20070;-78
2022/11/07 04:47:40;;;;;;;18.35;6.95;;;11.20;99.90;;;;;;5114278;27;20046;-78
2022/11/07 04:50:11;;;;;;;13.80;6.57;;;11.20;99.90;;;;;;5141180;27;20035;-78
2022/11/07 04:52:37;;;;;;;14.13;6.55;;;11.20;99.90;;;;;;5103479;27;20099;-78
2022/11/07 04:55:03;;;;;;;13.15;6.93;;;11.20;99.90;;;;;;5115734;27;20047;-78
2022/11/07 04:57:29;;;;;;;15.40;7.13;;;11.20;99.90;;;;;;5118762;27;20050;-78
2022/11/07 04:59:55;;;;;;;16.80;7.03;;;11.20;99.90;;;;;;5087991;27;20035;-78
2022/11/07 05:02:23;;;;;;;14.32;6.72;;;11.20;99.90;;;;;;5085437;27;20954;-78
2022/11/07 05:04:50;;;;;;;11.38;6.63;;;11.20;99.90;;;;;;5120590;27;20513;-78
2022/11/07 05:07:17;;;;;;;13.32;6.30;;;11.20;99.90;;;;;;5108054;27;20040;-80
2022/11/07 05:09:43;;;;;;;12.77;6.50;;;11.20;99.90;;;;;;5096823;27;20123;-77
2022/11/07 05:12:08;;;;;;;12.73;6.72;;;11.20;99.90;;;;;;5095782;28;20133;-78
2022/11/07 05:14:34;;;;;;;15.73;6.10;;;11.10;99.90;;;;;;5132361;27;20039;-77
2022/11/07 05:17:02;;;;;;;11.48;5.95;;;11.10;99.90;;;;;;5095379;27;20556;-78
2022/11/07 05:19:27;;;;;;;14.85;7.15;;;11.10;99.90;;;;;;5134219;27;20054;-78
2022/11/07 05:24:37;;;;;;;14.80;6.97;;;11.10;99.90;;;;;;5152159;27;20043;-78
2022/11/07 05:27:04;;;;;;;15.73;6.75;;;11.10;99.90;;;;;;5103563;27;20664;-80
2022/11/07 05:29:29;;;;;;;14.45;6.35;;;11.10;99.90;;;;;;5123966;27;20123;-78
2022/11/07 05:31:55;;;;;;;13.90;6.80;;;11.10;99.90;;;;;;5104940;27;20158;-78
2022/11/07 05:34:21;;;;;;;15.07;6.75;;;11.20;99.90;;;;;;5132075;27;20047;-78
2022/11/07 05:36:47;;;;;;;14.35;6.55;;;11.20;99.90;;;;;;5063018;28;20043;-78
2022/11/07 05:39:13;;;;;;;12.90;6.05;;;11.10;99.90;;;;;;5116137;27;20047;-78
2022/11/07 05:41:38;;;;;;;13.30;7.18;;;11.10;99.90;;;;;;5084048;27;20117;-78
2022/11/07 05:44:04;;;;;;;16.27;6.40;;;11.10;99.90;;;;;;5121496;27;20095;-78
2022/11/07 05:46:30;;;;;;;12.15;6.40;;;11.10;99.90;;;;;;5106118;27;20108;-78
2022/11/07 05:48:56;;;;;;;14.73;6.93;;;11.20;99.90;;;;;;5112684;27;20050;-78
2022/11/07 05:51:22;;;;;;;15.50;6.85;;;11.20;99.90;;;;;;5098303;27;20448;-78
2022/11/07 05:53:47;;;;;;;8.68;5.80;;;11.20;99.90;;;;;;5087670;27;20067;-78
2022/11/07 05:56:13;;;;;;;14.07;6.10;;;11.20;99.90;;;;;;5098288;27;20127;-78
2022/11/07 05:58:39;;;;;;;12.43;6.03;;;11.20;99.90;;;;;;5093664;27;20031;-78
2022/11/07 06:01:05;;;;;;;14.63;6.80;;;11.20;99.90;;;;;;5112423;27;20047;-77
2022/11/07 06:03:32;;;;;;;13.20;6.18;;;11.20;99.90;;;;;;5096769;27;20042;-78
2022/11/07 06:05:58;;;;;;;9.85;6.20;;;11.30;99.90;;;;;;5114470;27;20125;-78
2022/11/07 06:08:24;;;;;;;13.45;5.38;;;11.30;99.90;;;;;;5113434;27;20057;-78
2022/11/07 06:10:50;;;;;;;12.65;5.85;;;11.30;99.90;;;;;;5104311;27;20047;-78
2022/11/07 06:13:15;;;;;;;12.50;6.50;;;11.30;99.90;;;;;;5127631;27;20082;-77
2022/11/07 06:15:43;;;;;;;11.05;6.43;;;11.30;99.90;;;;;;5111258;27;20833;-78
2022/11/07 06:18:18;;;;;;;10.57;5.90;;;11.20;99.90;;;;;;5111358;27;20055;-78
2022/11/07 06:20:44;;;;;;;10.70;5.70;;;11.30;99.90;;;;;;5127151;27;20800;-78
2022/11/07 06:23:10;;;;;;;13.05;6.70;;;11.20;99.90;;;;;;5087994;27;21348;-78
2022/11/07 06:25:36;;;;;;;14.93;7.05;;;11.30;99.90;;;;;;5096460;27;20050;-77
2022/11/07 06:28:05;;;;;;;18.10;7.72;;;11.20;99.90;;;;;;5089044;27;20680;-78
2022/11/07 06:30:32;;;;;;;17.25;8.18;;;11.30;99.90;;;;;;5119819;27;20050;-77
2022/11/07 06:33:03;;;;;;;12.20;7.63;;;11.20;99.90;;;;;;5093192;27;20731;-77
2022/11/07 06:35:30;;;;;;;16.42;8.90;;;11.20;99.90;;;;;;5111601;27;20497;-78
2022/11/07 06:37:56;;;;;;;18.95;9.98;;;11.20;99.90;;;;;;5093924;27;20478;-79
2022/11/07 06:40:22;;;;;;;20.50;10.95;;;11.10;99.90;;;;;;5100769;27;20093;-77
2022/11/07 06:42:47;;;;;;;16.73;10.20;;;11.10;99.90;;;;;;5116874;27;20040;-77
2022/11/07 06:45:13;;;;;;;20.85;10.70;;;11.10;99.90;;;;;;5127159;27;20489;-77
2022/11/07 06:47:39;;;;;;;23.67;12.68;;;11.00;99.90;;;;;;5098139;27;20125;-76
2022/11/07 06:50:05;;;;;;;18.40;11.90;;;11.00;99.90;;;;;;5099421;27;20058;-76
2022/11/07 06:52:31;;;;;;;19.50;12.02;;;11.00;99.90;;;;;;5105657;27;20461;-76
2022/11/07 06:54:57;;;;;;;22.67;12.20;;;11.00;99.90;;;;;;5136897;27;20067;-76
2022/11/07 06:57:22;;;;;;;20.02;11.45;;;11.00;99.90;;;;;;5108110;27;20063;-76
2022/11/07 06:59:48;;;;;;;24.90;13.95;;;11.00;99.90;;;;;;5147028;27;20554;-76
2022/11/07 07:02:14;;;;;;;21.20;12.63;;;11.00;99.90;;;;;;5102285;27;20121;-76
2022/11/07 07:04:40;;;;;;;19.33;12.98;;;11.00;99.90;;;;;;5096044;27;20043;-76
2022/11/07 07:07:05;;;;;;;23.83;13.88;;;11.00;99.90;;;;;;5107225;27;20086;-75
2022/11/07 07:09:32;;;;;;;17.33;12.60;;;11.00;99.90;;;;;;5117323;27;20588;-77
2022/11/07 07:11:57;;;;;;;18.75;12.00;;;11.00;99.90;;;;;;5120393;27;20035;-76
2022/11/07 07:14:23;;;;;;;25.23;13.35;;;11.00;99.90;;;;;;5086517;27;20358;-76
2022/11/07 07:16:49;;;;;;;20.23;12.95;;;11.00;99.90;;;;;;5128884;27;20067;-76
2022/11/07 07:19:15;;;;;;;24.25;13.98;;;10.90;99.90;;;;;;5102510;27;20039;-77
2022/11/07 07:21:40;;;;;;;22.70;13.63;;;11.00;99.90;;;;;;5119896;27;20050;-76
2022/11/07 07:24:06;;;;;;;26.63;13.55;;;11.00;99.90;;;;;;5091815;27;20116;-76
2022/11/07 07:26:32;;;;;;;23.75;12.70;;;11.00;99.90;;;;;;5122183;27;20555;-76
2022/11/07 07:29:01;;;;;;;19.55;12.32;;;11.00;99.90;;;;;;5120179;27;20047;-76
2022/11/07 07:31:30;;;;;;;22.70;12.15;;;11.00;99.90;;;;;;5092021;27;20120;-76
2022/11/07 07:33:56;;;;;;;21.50;11.55;;;11.10;99.90;;;;;;5108890;27;20088;-77
2022/11/07 07:36:22;;;;;;;21.45;11.88;;;11.20;99.90;;;;;;5128890;27;20035;-77
2022/11/07 07:38:49;;;;;;;23.08;11.85;;;11.20;99.90;;;;;;5102518;27;20039;-75
2022/11/07 07:41:16;;;;;;;22.67;11.60;;;11.20;99.90;;;;;;5100369;27;20053;-77
2022/11/07 07:43:42;;;;;;;19.60;10.82;;;11.20;99.90;;;;;;5119617;27;20047;-77
2022/11/07 07:46:12;;;;;;;22.00;11.75;;;11.20;99.90;;;;;;5089457;27;20108;-75
2022/11/07 07:48:38;;;;;;;20.48;11.07;;;11.30;99.90;;;;;;5110906;27;20050;-72
2022/11/07 07:51:03;;;;;;;20.50;9.77;;;11.30;99.90;;;;;;5110038;27;20040;-71
2022/11/07 07:53:29;;;;;;;19.48;10.85;;;11.30;99.90;;;;;;5083719;27;20096;-73
2022/11/07 07:55:59;;;;;;;19.30;9.55;;;11.30;99.90;;;;;;5122367;27;20043;-72
2022/11/07 07:58:26;;;;;;;18.42;10.25;;;11.30;99.90;;;;;;5097002;27;20044;-71
2022/11/07 08:00:52;;;;;;;17.73;10.40;;;11.30;99.90;;;;;;5105868;27;20501;-72
2022/11/07 08:03:18;;;;;;;21.13;10.13;;;11.30;99.90;;;;;;5123386;27;20397;-72
2022/11/07 08:05:50;;;;;;;16.60;8.73;;;11.30;99.90;;;;;;5102139;27;20062;-71
2022/11/07 08:08:16;;;;;;;21.90;10.32;;;11.40;99.90;;;;;;5108223;27;20047;-77
2022/11/07 08:10:41;;;;;;;18.35;9.52;;;11.40;99.90;;;;;;5110632;27;20132;-77
2022/11/07 08:13:07;;;;;;;19.30;9.30;;;11.40;99.90;;;;;;5088531;27;20699;-76
2022/11/07 08:15:33;;;;;;;21.33;9.10;;;11.40;99.90;;;;;;5129515;27;20034;-72
2022/11/07 08:18:03;;;;;;;15.65;7.97;;;11.40;99.90;;;;;;5104400;27;20039;-72
2022/11/07 08:20:29;;;;;;;17.67;9.20;;;11.50;99.90;;;;;;5107722;27;20357;-72
2022/11/07 08:23:03;;;;;;;16.10;8.75;;;11.50;99.90;;;;;;5107973;27;20043;-71
2022/11/07 08:25:29;;;;;;;14.35;7.93;;;11.50;99.90;;;;;;5120765;27;20043;-72
2022/11/07 08:27:55;;;;;;;22.52;8.85;;;11.60;99.90;;;;;;5119932;27;20084;-72
2022/11/07 08:30:21;;;;;;;19.48;7.88;;;11.60;99.90;;;;;;5136600;27;20043;-72
2022/11/07 08:32:47;;;;;;;16.33;8.02;;;11.70;99.90;;;;;;5105878;27;20108;-71
2022/11/07 08:35:13;;;;;;;15.98;7.75;;;11.70;99.90;;;;;;5137373;27;20070;-72
2022/11/07 08:37:38;;;;;;;15.82;8.35;;;11.70;99.90;;;;;;5106045;27;20130;-77
2022/11/07 08:40:04;;;;;;;18.45;8.18;;;11.80;99.90;;;;;;5125347;27;20457;-78
2022/11/07 08:42:30;;;;;;;18.88;7.30;;;11.80;99.90;;;;;;5074202;27;20043;-77
2022/11/07 08:44:56;;;;;;;19.58;7.47;;;11.80;99.90;;;;;;5089190;27;20055;-76
2022/11/07 08:47:22;;;;;;;15.45;7.22;;;11.90;99.90;;;;;;5105021;27;20042;-78
2022/11/07 08:49:48;;;;;;;21.02;7.35;;;11.90;99.90;;;;;;5121984;27;20054;-78
2022/11/07 08:52:14;;;;;;;15.43;7.00;;;12.00;99.90;;;;;;5105821;27;20329;-77
2022/11/07 08:54:40;;;;;;;16.75;6.70;;;12.00;99.90;;;;;;5086637;27;20062;-78
2022/11/07 08:57:06;;;;;;;18.30;7.22;;;12.00;99.90;;;;;;5102802;27;20036;-77
2022/11/07 08:59:32;;;;;;;13.45;6.68;;;12.10;99.90;;;;;;5108733;27;20516;-77
2022/11/07 09:02:00;;;;;;;16.20;6.32;;;12.10;99.90;;;;;;5104720;27;20047;-78
2022/11/07 09:04:26;;;;;;;13.77;5.95;;;12.10;99.90;;;;;;5127973;27;20421;-78
2022/11/07 09:06:52;;;;;;;15.68;6.45;;;12.10;99.90;;;;;;5086993;27;20039;-77
2022/11/07 09:09:18;;;;;;;15.25;6.60;;;12.10;99.90;;;;;;5126315;27;20166;-77
2022/11/07 09:11:44;;;;;;;18.05;6.07;;;12.10;99.90;;;;;;5086951;27;20043;-78
2022/11/07 09:14:09;;;;;;;16.73;6.60;;;12.10;99.90;;;;;;5110282;27;20109;-77
2022/11/07 09:16:36;;;;;;;15.70;6.32;;;12.10;99.90;;;;;;5111017;27;20408;-78
2022/11/07 09:19:01;;;;;;;14.45;6.90;;;12.10;99.90;;;;;;5123776;27;20030;-78
2022/11/07 09:21:27;;;;;;;14.50;6.47;;;12.10;99.90;;;;;;5106574;27;20054;-77
2022/11/07 09:23:53;;;;;;;16.83;7.03;;;12.00;99.90;;;;;;5089415;27;20039;-78
2022/11/07 09:26:19;;;;;;;14.57;5.78;;;12.00;99.90;;;;;;5114412;27;20489;-78
2022/11/07 09:28:44;;;;;;;12.30;5.57;;;12.00;99.90;;;;;;5102201;27;20058;-78
2022/11/07 09:31:10;;;;;;;14.57;6.70;;;12.00;99.90;;;;;;5119492;27;20046;-78
2022/11/07 09:33:36;;;;;;;19.55;7.10;;;12.00;99.90;;;;;;5095708;27;20051;-80
2022/11/07 09:36:04;;;;;;;12.05;5.97;;;12.00;99.90;;;;;;5104388;27;20031;-78
2022/11/07 09:38:30;;;;;;;14.90;6.18;;;12.00;99.90;;;;;;5125760;27;20043;-79
2022/11/07 09:41:03;;;;;;;13.93;6.18;;;12.00;99.90;;;;;;5093482;27;20062;-79
2022/11/07 09:43:43;;;;;;;17.88;6.57;;;12.00;99.90;;;;;;5108859;27;20071;-79
2022/11/07 09:46:16;;;;;;;16.55;6.78;;;12.00;99.90;;;;;;5124175;27;20405;-78
2022/11/07 09:48:46;;;;;;;15.63;6.47;;;12.00;99.90;;;;;;5120902;27;20459;-79
2022/11/07 09:51:57;;;;;;;13.80;5.80;;;12.10;99.90;;;;;;5122116;27;20182;-79
2022/11/07 09:54:27;;;;;;;17.38;6.13;;;12.20;99.90;;;;;;5034750;28;20056;-78
2022/11/07 09:56:58;;;;;;;16.73;5.75;;;12.20;99.90;;;;;;5019169;28;20061;-79
2022/11/07 09:59:31;;;;;;;16.83;5.82;;;12.20;99.90;;;;;;5087214;27;20047;-78
2022/11/07 10:01:57;;;;;;;13.77;5.28;;;12.20;99.90;;;;;;5128167;27;20049;-78
2022/11/07 10:04:23;;;;;;;15.48;5.82;;;12.30;99.90;;;;;;5122504;27;20047;-79
2022/11/07 10:06:54;;;;;;;14.43;6.13;;;12.30;99.90;;;;;;5120960;27;20118;-78
2022/11/07 10:09:45;;;;;;;15.43;7.32;;;12.30;99.90;;;;;;5122887;27;20043;-78
2022/11/07 10:12:57;;;;;;;14.50;7.50;;;12.30;99.90;;;;;;5116407;27;20125;-78
2022/11/07 10:15:43;;;;;;;15.65;6.75;;;12.40;99.90;;;;;;5099249;27;20088;-79
2022/11/07 10:18:09;;;;;;;19.10;7.40;;;12.40;99.90;;;;;;5119495;27;20111;-78
2022/11/07 10:21:00;;;;;;;14.25;7.47;;;12.40;99.90;;;;;;5123466;27;20043;-77
2022/11/07 10:23:53;;;;;;;16.05;6.72;;;12.50;99.90;;;;;;5099939;27;20057;-78
2022/11/07 10:26:25;;;;;;;16.30;7.07;;;12.60;99.90;;;;;;5104604;27;20400;-78
2022/11/07 10:29:00;;;;;;;17.38;7.43;;;12.60;99.90;;;;;;5101348;27;20053;-79
2022/11/07 10:31:37;;;;;;;13.98;6.20;;;12.70;99.90;;;;;;5126443;27;20047;-78
2022/11/07 10:34:19;;;;;;;18.15;6.22;;;12.80;99.90;;;;;;5102014;27;20118;-78
2022/11/07 10:36:45;;;;;;;16.13;6.45;;;12.70;99.90;;;;;;5108156;27;20150;-78
2022/11/07 10:39:16;;;;;;;14.18;6.32;;;12.80;99.90;;;;;;5088357;27;20027;-79
2022/11/07 10:41:50;;;;;;;16.98;6.25;;;12.90;99.90;;;;;;5120445;27;20121;-78
2022/11/07 10:44:23;;;;;;;15.75;6.32;;;12.90;99.90;;;;;;5101832;27;20043;-78
2022/11/07 10:46:49;;;;;;;12.32;5.28;;;12.90;99.90;;;;;;5102999;27;20039;-78
2022/11/07 10:49:22;;;;;;;14.40;5.82;;;13.00;99.90;;;;;;5087243;27;20042;-78
2022/11/07 10:51:49;;;;;;;12.23;5.93;;;13.00;99.90;;;;;;5133643;27;20544;-79
2022/11/07 10:54:25;;;;;;;13.35;5.47;;;13.00;99.90;;;;;;5129404;27;20105;-78
2022/11/07 10:57:01;;;;;;;13.27;5.05;;;13.10;99.90;;;;;;5123057;27;20047;-78
2022/11/07 10:59:32;;;;;;;12.02;5.40;;;13.20;99.90;;;;;;5119373;27;20031;-79
2022/11/07 11:01:59;;;;;;;13.45;5.15;;;13.20;99.90;;;;;;5155192;27;20100;-78
2022/11/07 11:04:28;;;;;;;13.45;4.85;;;13.30;99.90;;;;;;5124344;27;20050;-79
2022/11/07 11:07:02;;;;;;;12.27;4.70;;;13.40;99.90;;;;;;5121657;27;20123;-79
2022/11/07 11:09:30;;;;;;;16.17;5.28;;;13.40;99.90;;;;;;5126721;27;20035;-79
2022/11/07 11:11:57;;;;;;;13.40;5.28;;;13.40;99.90;;;;;;5137861;27;20048;-78
2022/11/07 11:14:23;;;;;;;12.05;4.70;;;13.40;99.90;;;;;;5104351;27;20098;-78
2022/11/07 11:16:53;;;;;;;13.40;4.80;;;13.40;99.90;;;;;;5120206;27;20485;-79
2022/11/07 11:19:25;;;;;;;13.80;4.60;;;13.40;99.90;;;;;;5129960;27;20047;-78
2022/11/07 11:21:54;;;;;;;12.48;5.05;;;13.40;99.90;;;;;;5127312;27;20054;-79
2022/11/07 11:24:36;;;;;;;12.10;4.38;;;13.50;99.90;;;;;;5117116;27;20123;-78
2022/11/07 11:27:23;;;;;;;14.68;4.68;;;13.50;99.90;;;;;;5118405;27;20414;-78
2022/11/07 11:30:06;;;;;;;14.57;5.10;;;13.50;99.90;;;;;;5103156;27;20043;-78
2022/11/07 11:32:55;;;;;;;12.68;4.10;;;13.50;99.90;;;;;;5135477;27;20047;-78
2022/11/07 11:35:54;;;;;;;10.23;4.40;;;13.50;99.90;;;;;;5094546;27;20076;-78
2022/11/07 11:38:30;;;;;;;13.40;5.03;;;13.60;99.90;;;;;;5106451;27;20052;-78
2022/11/07 11:41:20;;;;;;;12.05;4.20;;;13.50;99.90;;;;;;5099845;27;20059;-79
2022/11/07 11:44:14;;;;;;;12.55;4.50;;;13.60;99.90;;;;;;5101854;27;20047;-78
2022/11/07 11:47:10;;;;;;;11.35;4.22;;;13.60;99.90;;;;;;5114550;27;20082;-78
2022/11/07 11:49:45;;;;;;;13.38;4.45;;;13.60;99.90;;;;;;5092205;27;20793;-78
2022/11/07 11:52:19;;;;;;;14.00;4.32;;;13.60;99.90;;;;;;5135853;27;20046;-79
2022/11/07 11:54:45;;;;;;;13.93;4.70;;;13.60;99.90;;;;;;5129003;27;20071;-79
2022/11/07 11:57:20;;;;;;;14.48;4.93;;;13.50;99.90;;;;;;5093859;27;20122;-78
2022/11/07 12:00:05;;;;;;;9.85;3.85;;;13.60;99.90;;;;;;5153441;27;20044;-78
2022/11/07 12:03:08;;;;;;;14.95;4.68;;;13.60;99.90;;;;;;5120188;27;20721;-78
2022/11/07 12:05:57;;;;;;;12.52;4.43;;;13.60;99.90;;;;;;5109107;27;20057;-78
2022/11/07 12:08:41;;;;;;;12.57;4.03;;;13.60;99.90;;;;;;5113673;27;20109;-79
2022/11/07 12:11:27;;;;;;;15.63;4.32;;;13.70;99.90;;;;;;5099404;27;20043;-79
2022/11/07 12:14:14;;;;;;;12.73;4.40;;;13.60;99.90;;;;;;5116970;27;20055;-79
2022/11/07 12:17:14;;;;;;;10.05;3.90;;;13.60;99.90;;;;;;5132254;27;20501;-79
2022/11/07 12:20:01;;;;;;;9.18;4.35;;;13.70;99.90;;;;;;5104309;27;20044;-79
2022/11/07 12:22:53;;;;;;;12.48;4.20;;;13.70;99.90;;;;;;5115477;27;20044;-79
2022/11/07 12:25:36;;;;;;;12.27;4.30;;;13.70;99.90;;;;;;5101077;27;20565;-78
2022/11/07 12:28:11;;;;;;;10.38;4.10;;;13.80;99.90;;;;;;5110505;27;20043;-79
2022/11/07 12:30:45;;;;;;;11.20;4.30;;;13.90;99.90;;;;;;5131542;27;20047;-78
2022/11/07 12:33:38;;;;;;;10.68;3.65;;;14.00;99.90;;;;;;5102580;27;20090;-79
2022/11/07 12:36:46;;;;;;;10.43;4.13;;;14.00;99.90;;;;;;5150919;27;20035;-84
2022/11/07 12:39:42;;;;;;;10.90;3.90;;;14.10;99.90;;;;;;5095359;27;20039;-84
2022/11/07 12:42:23;;;;;;;11.82;4.18;;;14.20;99.90;;;;;;5103446;27;20096;-85
2022/11/07 12:45:07;;;;;;;10.57;3.50;;;14.10;99.90;;;;;;5113463;27;20039;-83
2022/11/07 12:48:01;;;;;;;10.05;3.92;;;14.10;99.90;;;;;;5116960;27;21011;-83
2022/11/07 12:50:30;;;;;;;9.88;3.88;;;14.10;99.90;;;;;;5107873;27;20620;-84
2022/11/07 12:53:15;;;;;;;11.05;4.22;;;14.00;99.90;;;;;;5106277;27;20035;-83
2022/11/07 12:55:48;;;;;;;11.25;3.97;;;14.00;99.90;;;;;;5103196;27;20126;-84
2022/11/07 12:58:30;;;;;;;13.52;4.28;;;14.00;99.90;;;;;;5109224;27;20447;-85
2022/11/07 13:00:56;;;;;;;14.30;4.68;;;14.00;99.90;;;;;;5124837;27;20051;-83
2022/11/07 13:03:43;;;;;;;10.90;4.25;;;14.00;99.90;;;;;;5101675;27;20055;-84
2022/11/07 13:06:22;;;;;;;12.48;4.43;;;14.10;99.90;;;;;;5152482;27;20106;-84